Time;durP1;ratioP1;P1;durP2;ratioP2;P2;SDS_P1;SDS_P2;PMS_P1;PMS_P2;Temp;Humidity;BMP_temperature;BMP_pressure;BME280_temperature;BME280_humidity;BME280_pressure;Samples;Min_cycle;Max_cycle;Signal;HPM_P1;HPM_P2
2023/09/23 00:00:46;;;;;;;10.83;6.50;;;14.50;99.90;;;;;;4885816;29;20256;-66
2023/09/23 00:03:13;;;;;;;5.67;3.80;;;14.40;99.90;;;;;;4874424;29;20293;-66
2023/09/23 00:05:40;;;;;;;11.88;5.53;;;14.70;99.90;;;;;;4874462;29;20540;-68
2023/09/23 00:08:08;;;;;;;17.07;8.77;;;14.40;99.90;;;;;;4853886;29;20249;-70
2023/09/23 00:10:35;;;;;;;3.27;2.83;;;14.20;99.90;;;;;;4860265;29;20200;-69
2023/09/23 00:13:03;;;;;;;10.83;7.03;;;14.10;99.90;;;;;;4866460;29;20202;-68
2023/09/23 00:15:30;;;;;;;4.60;3.27;;;14.10;99.90;;;;;;4864439;29;20276;-70
2023/09/23 00:17:57;;;;;;;4.07;2.80;;;13.90;99.90;;;;;;4870834;29;20206;-69
2023/09/23 00:20:27;;;;;;;5.60;3.70;;;13.60;99.90;;;;;;4881509;29;20198;-70
2023/09/23 00:22:56;;;;;;;8.47;5.13;;;13.50;99.90;;;;;;4868256;29;20679;-70
2023/09/23 00:25:23;;;;;;;3.63;2.60;;;13.60;99.90;;;;;;4866896;29;20208;-68
2023/09/23 00:27:53;;;;;;;4.43;3.00;;;13.70;99.90;;;;;;4871883;29;20956;-68
2023/09/23 00:30:23;;;;;;;4.80;3.60;;;13.50;99.90;;;;;;4876204;29;20198;-66
2023/09/23 00:32:50;;;;;;;6.37;3.50;;;13.70;99.90;;;;;;4859734;29;20237;-67
2023/09/23 00:35:18;;;;;;;3.17;2.70;;;13.80;99.90;;;;;;4873087;29;20205;-67
2023/09/23 00:37:48;;;;;;;4.13;3.17;;;13.70;99.90;;;;;;4854639;29;20204;-67
2023/09/23 00:40:27;;;;;;;3.77;2.87;;;13.60;99.90;;;;;;4861201;29;20230;-69
2023/09/23 00:43:05;;;;;;;5.10;3.27;;;13.40;99.90;;;;;;4849994;29;20226;-65
2023/09/23 00:45:34;;;;;;;3.50;2.77;;;13.50;99.90;;;;;;4864667;29;20205;-66
2023/09/23 00:48:02;;;;;;;3.80;3.23;;;13.50;99.90;;;;;;4859958;29;20688;-63
2023/09/23 00:50:29;;;;;;;3.53;2.90;;;13.20;99.90;;;;;;4867104;29;20572;-65
2023/09/23 00:52:58;;;;;;;3.37;2.90;;;13.30;99.90;;;;;;4834312;29;20221;-64
2023/09/23 00:55:30;;;;;;;3.10;2.73;;;13.10;99.90;;;;;;4856583;29;20299;-65
2023/09/23 00:58:00;;;;;;;3.10;2.80;;;13.20;99.90;;;;;;4860153;29;20262;-65
2023/09/23 01:00:31;;;;;;;3.53;3.00;;;13.30;99.90;;;;;;4868291;29;20242;-65
2023/09/23 01:02:59;;;;;;;5.37;3.10;;;13.30;99.90;;;;;;4875039;29;20293;-65
2023/09/23 01:05:29;;;;;;;3.27;2.70;;;13.20;99.90;;;;;;4865607;29;20255;-63
2023/09/23 01:08:04;;;;;;;4.60;3.53;;;13.20;99.90;;;;;;4848474;29;20193;-63
2023/09/23 01:10:32;;;;;;;4.03;3.03;;;13.10;99.90;;;;;;4853123;29;20300;-64
2023/09/23 01:12:59;;;;;;;6.43;3.30;;;13.00;99.90;;;;;;4862172;29;20214;-64
2023/09/23 01:15:28;;;;;;;3.03;2.73;;;13.00;99.90;;;;;;4864886;29;20625;-66
2023/09/23 01:17:57;;;;;;;3.83;3.00;;;13.10;99.90;;;;;;4878996;29;20231;-67
2023/09/23 01:20:25;;;;;;;4.27;3.20;;;13.00;99.90;;;;;;4888753;29;20603;-69
2023/09/23 01:22:57;;;;;;;4.70;3.30;;;13.10;99.90;;;;;;4872564;29;20675;-69
2023/09/23 01:25:25;;;;;;;4.27;2.70;;;13.10;99.90;;;;;;4867872;29;20293;-69
2023/09/23 01:27:53;;;;;;;3.60;2.53;;;13.30;99.90;;;;;;4881991;29;20189;-70
2023/09/23 01:30:21;;;;;;;4.07;3.10;;;13.20;99.90;;;;;;4873612;29;20194;-69
2023/09/23 01:32:50;;;;;;;4.63;3.30;;;13.20;99.90;;;;;;4876233;29;20627;-70
2023/09/23 01:35:20;;;;;;;4.63;2.90;;;13.10;99.90;;;;;;4877162;29;20561;-69
2023/09/23 01:37:49;;;;;;;4.13;2.60;;;13.30;99.90;;;;;;4880742;29;20573;-67
2023/09/23 01:40:17;;;;;;;3.20;2.60;;;13.50;99.90;;;;;;4879644;29;20304;-65
2023/09/23 01:42:48;;;;;;;3.53;2.80;;;13.80;99.90;;;;;;4888661;29;20354;-65
2023/09/23 01:45:19;;;;;;;4.33;2.20;;;13.70;99.90;;;;;;4862308;29;20241;-65
2023/09/23 01:47:49;;;;;;;4.60;2.90;;;13.60;99.90;;;;;;4868432;29;20613;-66
2023/09/23 01:50:17;;;;;;;4.57;3.40;;;13.50;99.90;;;;;;4871486;29;20573;-70
2023/09/23 01:52:45;;;;;;;6.10;3.40;;;13.50;99.90;;;;;;4869069;29;20214;-68
2023/09/23 01:55:16;;;;;;;7.27;3.00;;;13.30;99.90;;;;;;4874598;29;20554;-66
2023/09/23 01:57:44;;;;;;;4.07;3.03;;;13.30;99.90;;;;;;4865232;29;20266;-67
2023/09/23 02:00:17;;;;;;;4.00;2.73;;;13.30;99.90;;;;;;4872226;29;20206;-71
2023/09/23 02:03:58;;;;;;;3.90;2.33;;;13.40;99.90;;;;;;4855684;29;20242;-67
2023/09/23 02:06:27;;;;;;;4.23;2.47;;;13.50;99.90;;;;;;4874589;29;20719;-71
2023/09/23 02:08:54;;;;;;;2.60;2.17;;;13.30;99.90;;;;;;4870100;29;20659;-72
2023/09/23 02:11:22;;;;;;;3.00;1.93;;;13.20;99.90;;;;;;4874919;29;20262;-71
2023/09/23 02:13:50;;;;;;;3.53;2.23;;;13.10;99.90;;;;;;4874249;29;20298;-64
2023/09/23 02:16:18;;;;;;;2.50;1.77;;;13.00;99.90;;;;;;4858877;29;20217;-64
2023/09/23 02:18:47;;;;;;;4.73;1.93;;;12.90;99.90;;;;;;4852728;29;20202;-63
2023/09/23 02:21:15;;;;;;;3.17;2.20;;;12.90;99.90;;;;;;4857667;29;20215;-63
2023/09/23 02:23:43;;;;;;;3.03;2.27;;;13.00;99.90;;;;;;4871932;29;20206;-64
2023/09/23 02:26:11;;;;;;;3.83;2.60;;;13.00;99.90;;;;;;4861798;29;20963;-65
2023/09/23 02:28:38;;;;;;;2.70;2.20;;;13.20;99.90;;;;;;4876682;29;20197;-75
2023/09/23 02:31:05;;;;;;;4.17;2.17;;;13.00;99.90;;;;;;4867649;29;20306;-64
2023/09/23 02:33:32;;;;;;;3.00;2.40;;;13.10;99.90;;;;;;4874093;29;20240;-65
2023/09/23 02:36:00;;;;;;;1.93;1.60;;;12.90;99.90;;;;;;4877269;29;20198;-64
2023/09/23 02:38:27;;;;;;;2.80;2.00;;;12.90;99.90;;;;;;4873183;29;20336;-76
2023/09/23 02:41:00;;;;;;;1.93;1.73;;;12.80;99.90;;;;;;4858067;29;20209;-64
2023/09/23 02:43:27;;;;;;;4.20;1.97;;;12.90;99.90;;;;;;4875819;29;20216;-70
2023/09/23 02:45:56;;;;;;;1.90;1.70;;;12.80;99.90;;;;;;4873575;29;20245;-70
2023/09/23 02:48:24;;;;;;;1.97;1.80;;;12.80;99.90;;;;;;4882473;29;20734;-73
2023/09/23 02:50:51;;;;;;;3.50;2.37;;;12.80;99.90;;;;;;4878303;29;20565;-70
2023/09/23 02:53:18;;;;;;;3.70;2.00;;;12.80;99.90;;;;;;4869877;29;20297;-70
2023/09/23 02:55:52;;;;;;;2.60;1.93;;;12.80;99.90;;;;;;4850944;29;20220;-67
2023/09/23 02:58:21;;;;;;;3.67;2.03;;;12.70;99.90;;;;;;4867728;29;20209;-70
2023/09/23 03:00:57;;;;;;;3.17;2.03;;;12.60;99.90;;;;;;4879224;29;20206;-76
2023/09/23 03:03:25;;;;;;;2.63;1.63;;;12.40;99.90;;;;;;4866496;29;20277;-71
2023/09/23 03:05:57;;;;;;;3.57;2.17;;;12.40;99.90;;;;;;4876576;29;20204;-67
2023/09/23 03:08:24;;;;;;;2.00;1.70;;;12.40;99.90;;;;;;4866689;29;20212;-66
2023/09/23 03:10:53;;;;;;;2.90;2.17;;;12.40;99.90;;;;;;4859578;29;20209;-65
2023/09/23 03:13:20;;;;;;;2.80;1.70;;;12.30;99.90;;;;;;4864731;29;20213;-65
2023/09/23 03:15:51;;;;;;;3.70;1.73;;;12.20;99.90;;;;;;4833213;29;20230;-64
2023/09/23 03:18:27;;;;;;;3.27;2.03;;;12.20;99.90;;;;;;4848314;29;20206;-63
2023/09/23 03:20:56;;;;;;;2.70;1.93;;;12.30;99.90;;;;;;4830647;29;20215;-63
2023/09/23 03:23:23;;;;;;;3.33;2.03;;;12.30;99.90;;;;;;4835388;29;20261;-64
2023/09/23 03:25:51;;;;;;;1.90;1.63;;;12.50;99.90;;;;;;4852850;29;20668;-65
2023/09/23 03:28:18;;;;;;;2.03;1.80;;;12.80;99.90;;;;;;4863847;29;20197;-64
2023/09/23 03:30:50;;;;;;;1.83;1.60;;;12.60;99.90;;;;;;4844858;29;20706;-66
2023/09/23 03:33:21;;;;;;;3.43;1.93;;;12.60;99.90;;;;;;4855125;29;20674;-73
2023/09/23 03:35:49;;;;;;;2.20;1.93;;;12.40;99.90;;;;;;4849363;29;20215;-65
2023/09/23 03:38:17;;;;;;;3.40;1.80;;;12.40;99.90;;;;;;4851432;29;20218;-65
2023/09/23 03:40:52;;;;;;;2.30;1.90;;;12.30;99.90;;;;;;4859497;29;20194;-64
2023/09/23 03:43:21;;;;;;;3.17;2.30;;;12.30;99.90;;;;;;4845517;29;20226;-77
2023/09/23 03:45:48;;;;;;;2.20;1.97;;;12.30;99.90;;;;;;4851760;29;20198;-68
2023/09/23 03:48:15;;;;;;;1.87;1.67;;;12.30;99.90;;;;;;4832127;29;20704;-69
2023/09/23 03:50:42;;;;;;;5.20;2.20;;;12.30;99.90;;;;;;4840460;29;20206;-71
2023/09/23 03:53:12;;;;;;;2.90;2.10;;;12.40;99.90;;;;;;4830256;29;20235;-71
2023/09/23 03:55:40;;;;;;;2.17;1.90;;;12.60;99.90;;;;;;4855894;29;20661;-72
2023/09/23 03:58:07;;;;;;;2.73;1.97;;;12.60;99.90;;;;;;4853124;29;20198;-69
2023/09/23 04:00:34;;;;;;;3.73;2.53;;;12.40;99.90;;;;;;4829647;29;20203;-71
2023/09/23 04:03:01;;;;;;;4.40;2.20;;;12.40;99.90;;;;;;4855610;29;20804;-65
2023/09/23 04:05:31;;;;;;;2.10;1.80;;;12.30;99.90;;;;;;4842005;29;20220;-75
2023/09/23 04:07:58;;;;;;;2.40;2.20;;;12.20;99.90;;;;;;4858584;29;20297;-64
2023/09/23 04:10:27;;;;;;;3.20;2.90;;;12.30;99.90;;;;;;4846048;29;20210;-64
2023/09/23 04:12:54;;;;;;;4.70;2.43;;;12.40;99.90;;;;;;4846500;29;20237;-78
2023/09/23 04:15:24;;;;;;;2.80;2.03;;;12.40;99.90;;;;;;4869194;29;20328;-79
2023/09/23 04:17:52;;;;;;;2.63;2.40;;;12.60;99.90;;;;;;4860292;29;20205;-64
2023/09/23 04:20:19;;;;;;;3.77;2.70;;;12.70;99.90;;;;;;4875562;29;20201;-68
2023/09/23 04:22:46;;;;;;;7.87;2.20;;;12.70;99.90;;;;;;4864382;29;20454;-65
2023/09/23 04:25:16;;;;;;;4.60;2.90;;;12.80;99.90;;;;;;4871934;29;20208;-66
2023/09/23 04:27:43;;;;;;;2.70;2.40;;;12.80;99.90;;;;;;4876147;29;20201;-64
2023/09/23 04:30:15;;;;;;;4.10;2.03;;;12.70;99.90;;;;;;4876936;29;20202;-65
2023/09/23 04:32:42;;;;;;;2.80;2.30;;;12.80;99.90;;;;;;4870283;29;20224;-68
2023/09/23 04:35:12;;;;;;;3.53;2.67;;;12.90;99.90;;;;;;4860799;29;20201;-69
2023/09/23 04:37:40;;;;;;;4.03;2.10;;;12.80;99.90;;;;;;4866603;29;20206;-70
2023/09/23 04:40:10;;;;;;;3.80;1.93;;;12.80;99.90;;;;;;4861015;29;20756;-68
2023/09/23 04:42:39;;;;;;;2.40;2.10;;;12.80;99.90;;;;;;4869493;29;20738;-68
2023/09/23 04:45:08;;;;;;;1.90;1.80;;;13.00;99.90;;;;;;4860884;29;20202;-69
2023/09/23 04:47:38;;;;;;;5.33;2.73;;;13.00;99.90;;;;;;4868556;29;20333;-68
2023/09/23 04:50:07;;;;;;;4.40;2.03;;;12.90;99.90;;;;;;4864699;29;20682;-73
2023/09/23 04:52:35;;;;;;;4.30;2.77;;;12.90;99.90;;;;;;4875417;29;20237;-71
2023/09/23 04:55:03;;;;;;;5.13;2.67;;;12.90;99.90;;;;;;4875918;29;20714;-69
2023/09/23 04:57:30;;;;;;;3.30;2.27;;;12.90;99.90;;;;;;4856023;29;20210;-70
2023/09/23 04:59:57;;;;;;;2.60;2.17;;;12.90;99.90;;;;;;4871529;29;20258;-71
2023/09/23 05:02:25;;;;;;;2.90;2.33;;;12.90;99.90;;;;;;4875469;29;20216;-70
2023/09/23 05:04:53;;;;;;;3.90;2.40;;;12.90;99.90;;;;;;4855564;29;20223;-69
2023/09/23 05:07:21;;;;;;;10.67;2.70;;;12.80;99.90;;;;;;4868568;29;20534;-70
2023/09/23 05:09:49;;;;;;;9.50;2.33;;;12.90;99.90;;;;;;4880689;29;20209;-68
2023/09/23 05:12:17;;;;;;;3.40;2.40;;;12.90;99.90;;;;;;4850283;29;20218;-70
2023/09/23 05:14:44;;;;;;;3.70;2.57;;;13.00;99.90;;;;;;4857738;29;20238;-64
2023/09/23 05:17:15;;;;;;;3.77;2.00;;;13.00;99.90;;;;;;4865787;29;20687;-63
2023/09/23 05:19:46;;;;;;;3.87;2.23;;;13.00;99.90;;;;;;4875432;29;20217;-64
2023/09/23 05:22:13;;;;;;;5.70;2.23;;;13.20;99.90;;;;;;4858763;29;20205;-67
2023/09/23 05:24:41;;;;;;;4.03;2.60;;;13.10;99.90;;;;;;4870034;29;20201;-65
2023/09/23 05:27:09;;;;;;;3.80;2.10;;;13.10;99.90;;;;;;4863467;29;20204;-75
2023/09/23 05:29:36;;;;;;;2.67;2.47;;;13.00;99.90;;;;;;4878154;29;20730;-66
2023/09/23 05:32:10;;;;;;;3.43;2.53;;;13.10;99.90;;;;;;4869907;29;20245;-68
2023/09/23 05:34:42;;;;;;;3.90;2.23;;;13.10;99.90;;;;;;4860863;29;20271;-69
2023/09/23 05:37:12;;;;;;;4.13;2.20;;;13.10;99.90;;;;;;4876862;29;20225;-68
2023/09/23 05:39:45;;;;;;;3.13;2.30;;;13.10;99.90;;;;;;4864202;29;20210;-66
2023/09/23 05:42:13;;;;;;;2.40;2.20;;;13.20;99.90;;;;;;4871647;29;20678;-66
2023/09/23 05:44:41;;;;;;;2.10;1.90;;;13.10;99.90;;;;;;4867881;29;20312;-69
2023/09/23 05:47:09;;;;;;;3.53;2.00;;;13.20;99.90;;;;;;4867414;29;20244;-65
2023/09/23 05:49:36;;;;;;;5.93;2.10;;;13.10;99.90;;;;;;4859025;29;20222;-70
2023/09/23 05:52:04;;;;;;;3.60;2.00;;;13.20;99.90;;;;;;4886439;29;20680;-67
2023/09/23 05:54:31;;;;;;;5.77;2.03;;;13.20;99.90;;;;;;4875680;29;20248;-68
2023/09/23 05:56:58;;;;;;;3.93;1.90;;;13.10;99.90;;;;;;4875341;29;20341;-63
2023/09/23 05:59:25;;;;;;;4.17;1.80;;;13.20;99.90;;;;;;4861187;29;20698;-66
2023/09/23 06:01:52;;;;;;;6.53;2.20;;;13.20;99.90;;;;;;4876457;29;20214;-65
2023/09/23 06:04:19;;;;;;;11.10;2.07;;;13.20;99.90;;;;;;4878327;29;20214;-66
2023/09/23 06:06:46;;;;;;;2.87;1.53;;;13.50;99.90;;;;;;4876394;29;20202;-62
2023/09/23 06:09:15;;;;;;;3.33;2.10;;;13.30;99.90;;;;;;4860625;29;20216;-63
2023/09/23 06:11:43;;;;;;;3.80;1.97;;;13.30;99.90;;;;;;4873666;29;20210;-66
2023/09/23 06:14:11;;;;;;;7.23;2.30;;;13.20;99.90;;;;;;4872586;29;20321;-64
2023/09/23 06:16:39;;;;;;;3.40;1.70;;;13.20;99.90;;;;;;4870931;29;20699;-81
2023/09/23 06:19:06;;;;;;;3.70;2.00;;;13.20;99.90;;;;;;4873452;29;20194;-65
2023/09/23 06:21:36;;;;;;;5.80;2.10;;;13.40;99.90;;;;;;4877791;29;20193;-63
2023/09/23 06:24:04;;;;;;;3.93;2.30;;;13.30;99.90;;;;;;4872472;29;20766;-66
2023/09/23 06:26:31;;;;;;;2.70;1.60;;;13.50;99.90;;;;;;4856293;29;20249;-73
2023/09/23 06:28:58;;;;;;;3.63;1.60;;;13.50;99.90;;;;;;4877595;29;20249;-68
2023/09/23 06:31:25;;;;;;;3.70;2.00;;;13.70;99.90;;;;;;4871020;29;20626;-69
2023/09/23 06:33:52;;;;;;;4.83;1.83;;;13.60;99.90;;;;;;4855508;29;20253;-68
2023/09/23 06:36:19;;;;;;;14.73;2.30;;;13.50;99.90;;;;;;4872208;29;20207;-66
2023/09/23 06:38:46;;;;;;;11.60;2.33;;;13.50;99.90;;;;;;4883176;29;20546;-66
2023/09/23 06:41:13;;;;;;;3.50;1.93;;;13.60;99.90;;;;;;4876052;29;20274;-64
2023/09/23 06:43:40;;;;;;;3.97;2.00;;;13.50;99.90;;;;;;4867166;29;20738;-65
2023/09/23 06:46:07;;;;;;;5.80;2.20;;;13.40;99.90;;;;;;4868951;29;20600;-70
2023/09/23 06:48:34;;;;;;;3.80;2.23;;;13.50;99.90;;;;;;4882561;29;20208;-67
2023/09/23 06:51:02;;;;;;;3.67;2.47;;;13.50;99.90;;;;;;4860841;29;20217;-69
2023/09/23 06:53:30;;;;;;;6.00;2.20;;;13.70;99.90;;;;;;4872266;29;20249;-72
2023/09/23 06:55:57;;;;;;;4.77;2.20;;;13.70;99.90;;;;;;4865438;29;20198;-68
2023/09/23 06:58:24;;;;;;;3.37;2.37;;;13.60;99.90;;;;;;4862479;29;20217;-67
2023/09/23 07:00:53;;;;;;;7.67;2.30;;;13.60;99.90;;;;;;4865504;29;20194;-68
2023/09/23 07:03:20;;;;;;;10.33;2.57;;;13.50;99.90;;;;;;4876307;29;20217;-70
2023/09/23 07:05:48;;;;;;;4.23;2.17;;;13.60;99.90;;;;;;4858433;29;20210;-70
2023/09/23 07:08:16;;;;;;;3.27;2.37;;;13.50;99.90;;;;;;4872671;29;20201;-68
2023/09/23 07:10:43;;;;;;;4.73;2.73;;;13.60;99.90;;;;;;4880227;29;20198;-73
2023/09/23 07:13:10;;;;;;;6.37;2.50;;;13.60;99.90;;;;;;4869668;29;20216;-66
2023/09/23 07:15:40;;;;;;;2.97;1.87;;;13.60;99.90;;;;;;4865747;29;20707;-85
2023/09/23 07:18:08;;;;;;;7.07;2.63;;;13.90;99.90;;;;;;4880515;29;20209;-69
2023/09/23 07:20:35;;;;;;;2.83;2.30;;;13.90;99.90;;;;;;4879563;29;20292;-69
2023/09/23 07:23:03;;;;;;;4.07;2.10;;;13.90;99.90;;;;;;4872136;29;20292;-69
2023/09/23 07:25:36;;;;;;;3.30;2.13;;;14.00;99.90;;;;;;4860149;29;20209;-71
2023/09/23 07:28:03;;;;;;;4.10;2.73;;;13.90;99.90;;;;;;4861822;29;20213;-75
2023/09/23 07:30:33;;;;;;;4.13;2.40;;;13.90;99.90;;;;;;4880883;29;20194;-68
2023/09/23 07:33:00;;;;;;;2.40;2.20;;;13.90;99.90;;;;;;4857257;29;20221;-72
2023/09/23 07:35:32;;;;;;;3.17;2.33;;;14.00;99.90;;;;;;4858062;29;20362;-70
2023/09/23 07:37:59;;;;;;;2.03;1.80;;;14.10;99.90;;;;;;4877249;29;20626;-69
2023/09/23 07:40:27;;;;;;;2.80;2.07;;;14.20;99.90;;;;;;4877467;29;20666;-69
2023/09/23 07:42:55;;;;;;;6.20;2.50;;;14.20;99.90;;;;;;4873073;29;20205;-78
2023/09/23 07:45:25;;;;;;;3.97;2.47;;;14.00;99.90;;;;;;4860137;29;20201;-72
2023/09/23 07:47:52;;;;;;;4.73;2.20;;;14.20;99.90;;;;;;4873774;29;20229;-73
2023/09/23 07:50:19;;;;;;;2.33;1.70;;;14.30;99.90;;;;;;4862171;29;20667;-70
2023/09/23 07:52:46;;;;;;;5.70;2.10;;;14.40;99.90;;;;;;4858416;29;20201;-69
2023/09/23 07:55:13;;;;;;;3.80;2.10;;;14.40;99.90;;;;;;4852744;29;20305;-63
2023/09/23 07:57:40;;;;;;;5.03;2.57;;;14.20;99.90;;;;;;4858905;29;20204;-66
2023/09/23 08:00:09;;;;;;;6.27;2.70;;;14.30;99.90;;;;;;4874360;29;20653;-63
2023/09/23 08:02:39;;;;;;;4.73;2.57;;;14.40;99.90;;;;;;4866142;29;20233;-65
2023/09/23 08:05:06;;;;;;;4.77;2.37;;;14.40;99.90;;;;;;4863409;29;20300;-64
2023/09/23 08:07:33;;;;;;;3.57;2.33;;;14.40;99.90;;;;;;4872338;29;20201;-67
2023/09/23 08:10:02;;;;;;;4.73;2.30;;;14.50;99.90;;;;;;4860831;29;20210;-69
2023/09/23 08:12:33;;;;;;;7.30;2.97;;;14.60;99.90;;;;;;4866304;29;20201;-64
2023/09/23 08:15:00;;;;;;;2.17;1.80;;;14.70;99.90;;;;;;4867425;29;20226;-64
2023/09/23 08:17:27;;;;;;;5.43;2.40;;;14.60;99.90;;;;;;4859669;29;20213;-64
2023/09/23 08:19:55;;;;;;;3.67;1.93;;;14.80;99.90;;;;;;4863729;29;20215;-64
2023/09/23 08:22:23;;;;;;;5.87;2.40;;;14.90;99.90;;;;;;4859580;29;20205;-63
2023/09/23 08:24:51;;;;;;;6.87;2.50;;;14.90;99.90;;;;;;4872374;29;20222;-64
2023/09/23 08:27:18;;;;;;;3.10;2.20;;;14.80;99.90;;;;;;4867726;29;20204;-63
2023/09/23 08:29:45;;;;;;;4.22;2.08;;;14.80;99.90;;;;;;4857271;29;20198;-72
2023/09/23 08:32:12;;;;;;;6.80;2.23;;;15.20;99.90;;;;;;4869355;29;20687;-65
2023/09/23 08:34:39;;;;;;;4.47;2.53;;;15.30;99.90;;;;;;4868136;29;20198;-65
2023/09/23 08:37:06;;;;;;;5.47;2.53;;;15.20;99.90;;;;;;4830384;29;20211;-62
2023/09/23 08:39:33;;;;;;;2.07;1.77;;;14.90;99.90;;;;;;4856232;29;20232;-64
2023/09/23 08:42:03;;;;;;;5.50;2.30;;;15.00;99.90;;;;;;4864462;29;20259;-64
2023/09/23 08:44:33;;;;;;;4.30;2.10;;;14.80;99.90;;;;;;4869263;29;20290;-70
2023/09/23 08:47:00;;;;;;;6.47;2.10;;;15.20;99.90;;;;;;4866589;29;20209;-71
2023/09/23 08:49:29;;;;;;;5.70;2.00;;;15.50;99.90;;;;;;4854719;29;20252;-65
2023/09/23 08:51:56;;;;;;;11.20;2.42;;;15.70;99.90;;;;;;4858539;29;20208;-68
2023/09/23 08:54:27;;;;;;;7.10;2.20;;;15.70;99.90;;;;;;4867677;29;20223;-68
2023/09/23 08:56:54;;;;;;;3.40;2.17;;;15.80;99.90;;;;;;4870117;29;20213;-68
2023/09/23 08:59:22;;;;;;;8.00;2.33;;;15.70;99.90;;;;;;4867697;29;20216;-73
2023/09/23 09:01:49;;;;;;;5.35;1.95;;;16.30;99.90;;;;;;4864277;29;20535;-68
2023/09/23 09:04:16;;;;;;;2.65;2.03;;;16.20;99.90;;;;;;4863628;29;20696;-67
2023/09/23 09:06:50;;;;;;;4.15;1.70;;;17.10;99.90;;;;;;4855943;29;20253;-69
2023/09/23 09:09:18;;;;;;;3.17;1.88;;;16.90;99.90;;;;;;4857441;29;20209;-67
2023/09/23 09:11:51;;;;;;;3.67;2.10;;;16.90;99.90;;;;;;4866335;29;20199;-67
2023/09/23 09:14:18;;;;;;;2.15;1.90;;;17.20;99.90;;;;;;4863422;29;20691;-70
2023/09/23 09:16:46;;;;;;;4.10;2.20;;;18.00;99.90;;;;;;4872684;29;20210;-69
2023/09/23 09:19:13;;;;;;;1.90;1.70;;;17.30;99.90;;;;;;4874511;29;20268;-69
2023/09/23 09:21:41;;;;;;;2.28;2.08;;;16.90;99.90;;;;;;4867905;29;20209;-66
2023/09/23 09:24:09;;;;;;;3.75;1.88;;;16.80;99.90;;;;;;4866333;29;20218;-67
2023/09/23 09:26:38;;;;;;;1.55;1.45;;;16.90;99.90;;;;;;4873112;29;20678;-67
2023/09/23 09:29:05;;;;;;;2.63;1.80;;;17.20;99.90;;;;;;4877153;29;20194;-68
2023/09/23 09:31:34;;;;;;;3.28;1.92;;;18.00;99.90;;;;;;4877635;29;20221;-67
2023/09/23 09:34:05;;;;;;;2.58;1.48;;;18.10;99.90;;;;;;4872422;29;20201;-68
2023/09/23 09:36:36;;;;;;;3.40;2.05;;;20.30;99.90;;;;;;4875211;29;20202;-71
2023/09/23 09:39:08;;;;;;;1.88;1.67;;;22.30;99.90;;;;;;4877825;29;20530;-73
2023/09/23 09:41:45;;;;;;;2.47;1.70;;;21.40;99.90;;;;;;4878860;29;20198;-72
2023/09/23 09:44:15;;;;;;;5.03;2.88;;;22.60;99.90;;;;;;4873290;29;20221;-71
2023/09/23 09:46:43;;;;;;;5.72;3.38;;;26.10;99.90;;;;;;4875088;29;20264;-71
2023/09/23 09:49:11;;;;;;;4.43;2.55;;;24.30;99.90;;;;;;4871250;29;20212;-67
2023/09/23 09:51:40;;;;;;;7.45;3.28;;;22.30;99.90;;;;;;4852216;29;20210;-68
2023/09/23 09:54:09;;;;;;;9.30;3.33;;;20.50;99.90;;;;;;4867967;29;20202;-74
2023/09/23 09:56:38;;;;;;;4.72;3.35;;;20.30;99.90;;;;;;4869009;29;20224;-71
2023/09/23 09:59:06;;;;;;;5.00;3.03;;;20.90;99.90;;;;;;4874164;29;20860;-64
2023/09/23 10:01:35;;;;;;;7.10;2.42;;;22.90;99.90;;;;;;4871721;29;20754;-65
2023/09/23 10:04:10;;;;;;;3.25;2.30;;;23.40;99.90;;;;;;4882892;29;20228;-65
2023/09/23 10:06:39;;;;;;;4.63;1.90;;;23.00;99.90;;;;;;4875299;29;20800;-65
2023/09/23 10:09:17;;;;;;;6.13;3.45;;;22.50;99.90;;;;;;4875535;29;20281;-64
2023/09/23 10:11:53;;;;;;;3.40;2.60;;;22.20;99.90;;;;;;4884554;29;20555;-67
2023/09/23 10:14:27;;;;;;;6.07;3.53;;;26.80;99.90;;;;;;4873790;29;20962;-67
2023/09/23 10:16:59;;;;;;;3.58;2.45;;;26.50;99.90;;;;;;4877557;29;20674;-70
2023/09/23 10:19:33;;;;;;;4.10;3.08;;;25.90;99.90;;;;;;4861658;29;20217;-69
2023/09/23 10:22:18;;;;;;;3.50;1.90;;;26.70;99.90;;;;;;4870080;29;20205;-70
2023/09/23 10:24:46;;;;;;;5.53;3.28;;;25.60;99.90;;;;;;4871900;29;20232;-71
2023/09/23 10:27:21;;;;;;;2.92;2.65;;;28.10;99.90;;;;;;4876670;29;20281;-71
2023/09/23 10:29:49;;;;;;;3.67;2.33;;;25.30;99.90;;;;;;4874891;29;20273;-69
2023/09/23 10:32:18;;;;;;;5.20;4.55;;;25.30;99.90;;;;;;4877935;29;20225;-70
2023/09/23 10:34:55;;;;;;;2.85;2.03;;;23.10;99.90;;;;;;4875130;29;20206;-68
2023/09/23 10:37:35;;;;;;;7.07;2.67;;;24.20;99.90;;;;;;4868946;29;20257;-69
2023/09/23 10:40:12;;;;;;;2.72;2.53;;;26.70;99.90;;;;;;4876034;29;20205;-70
2023/09/23 10:42:41;;;;;;;5.38;3.97;;;28.90;99.90;;;;;;4875828;29;20208;-69
2023/09/23 10:45:09;;;;;;;4.40;3.33;;;31.50;99.90;;;;;;4866618;29;20281;-69
2023/09/23 10:47:37;;;;;;;3.03;2.72;;;30.40;99.90;;;;;;4873037;29;20206;-69
2023/09/23 10:50:06;;;;;;;2.80;2.38;;;30.00;99.90;;;;;;4882076;29;20189;-70
2023/09/23 10:52:33;;;;;;;2.45;2.25;;;28.60;99.90;;;;;;4871375;29;20193;-69
2023/09/23 10:55:05;;;;;;;2.65;2.38;;;27.30;99.90;;;;;;4869658;29;20209;-70
2023/09/23 10:57:36;;;;;;;4.70;2.65;;;25.60;99.90;;;;;;4874345;29;20299;-71
2023/09/23 11:00:12;;;;;;;2.35;2.20;;;25.80;99.90;;;;;;4872414;29;20539;-69
2023/09/23 11:02:43;;;;;;;4.05;2.05;;;23.70;99.90;;;;;;4872507;29;20391;-69
2023/09/23 11:05:11;;;;;;;3.13;2.42;;;23.50;99.90;;;;;;4870240;29;20636;-66
2023/09/23 11:07:42;;;;;;;5.97;4.00;;;23.10;99.90;;;;;;4877434;29;20539;-65
2023/09/23 11:10:12;;;;;;;8.52;3.92;;;22.50;99.90;;;;;;4858902;29;20292;-66
2023/09/23 11:12:45;;;;;;;7.00;4.13;;;25.10;99.90;;;;;;4871340;29;20290;-65
2023/09/23 11:15:13;;;;;;;4.43;2.70;;;26.90;99.90;;;;;;4863895;29;20391;-63
2023/09/23 11:17:41;;;;;;;9.18;4.50;;;24.20;99.90;;;;;;4857716;29;20218;-65
2023/09/23 11:20:10;;;;;;;29.05;12.98;;;23.80;99.90;;;;;;4856010;29;20672;-64
2023/09/23 11:22:38;;;;;;;4.75;2.70;;;24.20;99.90;;;;;;4859824;29;20694;-70
2023/09/23 11:25:09;;;;;;;4.05;3.42;;;23.70;99.90;;;;;;4860183;29;20207;-64
2023/09/23 11:27:36;;;;;;;7.68;4.03;;;23.40;99.90;;;;;;4857918;29;20199;-65
2023/09/23 11:30:05;;;;;;;7.20;2.85;;;24.60;99.90;;;;;;4857256;29;20198;-65
2023/09/23 11:32:33;;;;;;;4.43;2.05;;;22.80;99.90;;;;;;4841559;29;20230;-64
2023/09/23 11:35:00;;;;;;;3.55;3.03;;;21.40;99.90;;;;;;4853828;29;20202;-64
2023/09/23 11:37:27;;;;;;;3.08;2.20;;;21.20;99.90;;;;;;4844429;29;20216;-64
2023/09/23 11:39:56;;;;;;;2.25;2.00;;;20.90;99.90;;;;;;4824196;29;20277;-64
2023/09/23 11:42:24;;;;;;;5.38;3.45;;;20.40;99.90;;;;;;4834627;29;20664;-64
2023/09/23 11:44:51;;;;;;;7.93;5.18;;;19.70;99.90;;;;;;4849230;29;20312;-64
2023/09/23 11:47:20;;;;;;;3.53;2.22;;;20.00;99.90;;;;;;4855344;29;20668;-70
2023/09/23 11:49:48;;;;;;;6.95;4.40;;;19.80;99.90;;;;;;4851136;29;20961;-65
2023/09/23 11:52:15;;;;;;;7.53;3.55;;;20.20;99.90;;;;;;4850126;29;20203;-64
2023/09/23 11:54:43;;;;;;;6.38;4.25;;;20.50;99.90;;;;;;4848089;29;20263;-66
2023/09/23 11:57:10;;;;;;;7.13;5.32;;;20.70;99.90;;;;;;4840172;29;20207;-69
2023/09/23 11:59:38;;;;;;;8.77;5.65;;;21.00;99.90;;;;;;4851931;29;20556;-64
2023/09/23 12:02:05;;;;;;;9.93;4.85;;;21.40;99.90;;;;;;4837693;29;20206;-64
2023/09/23 12:04:32;;;;;;;5.60;3.30;;;22.70;99.90;;;;;;4854703;29;20300;-65
2023/09/23 12:07:00;;;;;;;2.83;2.58;;;23.10;99.90;;;;;;4855147;29;20197;-67
2023/09/23 12:09:28;;;;;;;2.95;2.47;;;22.40;99.90;;;;;;4865096;29;20715;-67
2023/09/23 12:11:55;;;;;;;3.05;2.15;;;21.60;99.90;;;;;;4840936;29;20273;-63
2023/09/23 12:14:22;;;;;;;4.57;2.00;;;22.30;99.90;;;;;;4862105;29;20252;-62
2023/09/23 12:16:50;;;;;;;3.28;2.10;;;21.50;99.90;;;;;;4876186;29;20202;-62
2023/09/23 12:19:17;;;;;;;2.35;1.77;;;20.90;99.90;;;;;;4877484;29;20273;-65
2023/09/23 12:21:45;;;;;;;2.58;2.15;;;21.00;99.90;;;;;;4880283;29;20202;-65
2023/09/23 12:24:12;;;;;;;2.00;1.80;;;21.40;99.90;;;;;;4846926;29;20210;-66
2023/09/23 12:26:39;;;;;;;2.20;2.00;;;21.40;99.90;;;;;;4868427;29;20198;-65
2023/09/23 12:29:06;;;;;;;4.03;2.58;;;21.20;99.90;;;;;;4871916;29;20722;-67
2023/09/23 12:31:33;;;;;;;1.65;1.55;;;20.90;99.90;;;;;;4867433;29;20706;-64
2023/09/23 12:34:00;;;;;;;8.27;2.80;;;20.10;99.90;;;;;;4865792;29;20233;-63
2023/09/23 12:36:30;;;;;;;6.18;2.80;;;20.50;99.90;;;;;;4867103;29;20270;-69
2023/09/23 12:38:57;;;;;;;2.65;2.42;;;21.20;99.90;;;;;;4874386;29;20185;-69
2023/09/23 12:41:24;;;;;;;2.45;1.95;;;21.20;99.90;;;;;;4876775;29;20193;-76
2023/09/23 12:43:51;;;;;;;5.38;2.58;;;20.50;99.90;;;;;;4859339;29;20270;-68
2023/09/23 12:46:20;;;;;;;2.85;2.63;;;20.70;99.90;;;;;;4869237;29;20222;-68
2023/09/23 12:48:47;;;;;;;8.15;4.43;;;20.50;99.90;;;;;;4861423;29;20221;-68
2023/09/23 12:51:15;;;;;;;6.85;4.28;;;20.60;99.90;;;;;;4874113;29;20202;-68
2023/09/23 12:53:42;;;;;;;11.48;6.43;;;21.20;99.90;;;;;;4858813;29;20718;-69